Time;durP1;ratioP1;P1;durP2;ratioP2;P2;SDS_P1;SDS_P2;PMS_P1;PMS_P2;Temp;Humidity;BMP_temperature;BMP_pressure;BME280_temperature;BME280_humidity;BME280_pressure;Samples;Min_cycle;Max_cycle;Signal;HPM_P1;HPM_P2
2023/08/19 00:01:35;;;;;;;0.80;0.80;;;21.10;99.90;;;;;;4975680;28;20042;-86
2023/08/19 00:04:00;;;;;;;0.80;0.80;;;21.60;99.90;;;;;;4974162;28;20039;-88
2023/08/19 00:06:33;;;;;;;0.88;0.88;;;20.90;99.90;;;;;;4973039;28;20125;-88
2023/08/19 00:09:01;;;;;;;1.03;1.00;;;21.20;99.90;;;;;;4960797;28;21147;-88
2023/08/19 00:11:27;;;;;;;1.00;1.00;;;21.40;99.90;;;;;;4972758;28;20072;-88
2023/08/19 00:13:53;;;;;;;0.93;0.93;;;21.70;99.90;;;;;;4969000;28;20486;-88
2023/08/19 00:16:18;;;;;;;0.90;0.90;;;21.20;99.90;;;;;;4955573;28;20054;-88
2023/08/19 00:18:44;;;;;;;1.10;1.10;;;21.40;99.90;;;;;;4956178;28;20054;-87
2023/08/19 00:21:10;;;;;;;0.90;0.90;;;21.30;99.90;;;;;;4969582;28;20050;-88
2023/08/19 00:23:35;;;;;;;1.00;1.00;;;21.40;99.90;;;;;;4973330;28;20046;-86
2023/08/19 00:26:01;;;;;;;0.98;0.98;;;21.40;99.90;;;;;;4959680;28;20039;-88
2023/08/19 00:28:27;;;;;;;1.10;1.10;;;21.10;99.90;;;;;;4957219;28;20050;-88
2023/08/19 00:30:53;;;;;;;0.90;0.90;;;21.50;99.90;;;;;;4958985;28;20050;-86
2023/08/19 00:33:18;;;;;;;1.02;1.00;;;21.20;99.90;;;;;;4951488;28;20074;-87
2023/08/19 00:35:44;;;;;;;0.90;0.90;;;21.20;99.90;;;;;;4951973;28;20058;-87
2023/08/19 00:38:10;;;;;;;0.90;0.90;;;21.10;99.90;;;;;;4980125;28;20117;-87
2023/08/19 00:40:35;;;;;;;0.80;0.80;;;21.60;99.90;;;;;;4961019;28;20051;-86
2023/08/19 00:43:01;;;;;;;0.80;0.80;;;21.10;99.90;;;;;;4982026;28;20412;-87
2023/08/19 00:45:27;;;;;;;0.80;0.80;;;21.60;99.90;;;;;;4961870;28;20077;-87
2023/08/19 00:47:53;;;;;;;0.98;0.90;;;21.20;99.90;;;;;;4960231;28;20412;-85
2023/08/19 00:50:20;;;;;;;0.88;0.88;;;21.20;99.90;;;;;;4950174;28;20050;-87
2023/08/19 00:52:45;;;;;;;0.80;0.80;;;21.60;99.90;;;;;;4958098;28;20050;-86
2023/08/19 00:55:11;;;;;;;0.70;0.70;;;21.10;99.90;;;;;;4975728;28;20043;-86
2023/08/19 00:57:38;;;;;;;1.08;1.08;;;21.20;99.90;;;;;;4954933;28;20096;-86
2023/08/19 01:00:05;;;;;;;0.90;0.90;;;21.30;99.90;;;;;;4952655;28;20053;-88
2023/08/19 01:02:31;;;;;;;0.80;0.80;;;21.50;99.90;;;;;;4957707;28;20137;-88
2023/08/19 01:04:57;;;;;;;0.90;0.90;;;21.20;99.90;;;;;;4953639;28;20125;-88
2023/08/19 01:07:40;;;;;;;0.80;0.80;;;21.50;99.90;;;;;;4969767;28;20054;-87
2023/08/19 01:10:29;;;;;;;0.70;0.70;;;21.60;99.90;;;;;;4960897;28;20038;-88
2023/08/19 01:13:03;;;;;;;0.60;0.60;;;21.10;99.90;;;;;;4970803;28;20152;-87
2023/08/19 01:15:34;;;;;;;0.60;0.60;;;21.50;99.90;;;;;;4959946;28;20046;-88
2023/08/19 01:18:02;;;;;;;0.60;0.60;;;21.10;99.90;;;;;;4961201;28;20081;-88
2023/08/19 01:20:31;;;;;;;0.60;0.60;;;21.50;99.90;;;;;;4952656;28;21274;-87
2023/08/19 01:23:02;;;;;;;0.60;0.60;;;21.00;99.90;;;;;;4971640;28;20058;-89
2023/08/19 01:25:28;;;;;;;0.60;0.60;;;21.40;99.90;;;;;;4955750;28;20039;-88
2023/08/19 01:27:54;;;;;;;0.60;0.60;;;21.30;99.90;;;;;;4960070;28;20507;-88
2023/08/19 01:30:20;;;;;;;0.60;0.60;;;21.40;99.90;;;;;;4974596;28;20042;-87
2023/08/19 01:32:47;;;;;;;0.60;0.60;;;21.40;99.90;;;;;;4960477;28;20046;-87
2023/08/19 01:35:14;;;;;;;0.60;0.60;;;21.30;99.90;;;;;;4974489;28;20404;-87
2023/08/19 01:38:11;;;;;;;0.52;0.52;;;21.30;99.90;;;;;;4957949;28;20043;-87
2023/08/19 01:40:39;;;;;;;0.50;0.50;;;21.00;99.90;;;;;;4943663;28;20309;-87
2023/08/19 01:43:10;;;;;;;0.70;0.70;;;21.50;99.90;;;;;;4971138;28;20073;-88
2023/08/19 01:45:36;;;;;;;0.60;0.60;;;21.30;99.90;;;;;;4958403;28;20057;-87
2023/08/19 01:48:02;;;;;;;0.60;0.60;;;21.30;99.90;;;;;;4976860;28;20138;-89
2023/08/19 01:50:28;;;;;;;0.60;0.60;;;20.90;99.90;;;;;;4960209;28;20563;-88
2023/08/19 01:52:54;;;;;;;0.60;0.60;;;21.10;99.90;;;;;;4955206;28;20050;-87
2023/08/19 01:55:20;;;;;;;0.60;0.60;;;21.30;99.90;;;;;;4955849;28;20499;-87
2023/08/19 01:57:45;;;;;;;0.68;0.68;;;20.80;99.90;;;;;;4972103;28;20101;-88
2023/08/19 02:00:11;;;;;;;0.70;0.70;;;21.00;99.90;;;;;;4974004;28;20042;-87
2023/08/19 02:02:37;;;;;;;0.70;0.70;;;21.10;99.90;;;;;;4956813;28;20046;-88
2023/08/19 02:05:03;;;;;;;0.70;0.70;;;21.20;99.90;;;;;;4974070;28;20050;-88
2023/08/19 02:07:29;;;;;;;0.70;0.70;;;20.90;99.90;;;;;;4974375;28;20038;-87
2023/08/19 02:09:54;;;;;;;0.70;0.70;;;21.00;99.90;;;;;;4960010;28;20054;-87
2023/08/19 02:12:20;;;;;;;0.70;0.70;;;20.90;99.90;;;;;;4960312;28;20046;-88
2023/08/19 02:14:46;;;;;;;0.73;0.73;;;21.10;99.90;;;;;;4959595;28;20503;-87
2023/08/19 02:17:12;;;;;;;0.88;0.80;;;21.20;99.90;;;;;;4980657;28;20046;-88
2023/08/19 02:19:37;;;;;;;0.63;0.63;;;20.80;99.90;;;;;;4964591;28;20411;-87
2023/08/19 02:22:04;;;;;;;0.65;0.65;;;21.20;99.90;;;;;;4963684;28;20515;-87
2023/08/19 02:24:30;;;;;;;0.68;0.68;;;20.80;99.90;;;;;;4976431;28;20139;-87
2023/08/19 02:26:55;;;;;;;1.25;1.15;;;20.70;99.90;;;;;;4963637;28;20105;-87
2023/08/19 02:29:21;;;;;;;0.60;0.60;;;21.20;99.90;;;;;;4979082;28;20049;-89
2023/08/19 02:31:50;;;;;;;0.60;0.60;;;21.00;99.90;;;;;;4960935;28;20043;-88
2023/08/19 02:34:21;;;;;;;0.60;0.60;;;21.10;99.90;;;;;;4962021;28;20043;-88
2023/08/19 02:36:46;;;;;;;0.57;0.57;;;21.20;99.90;;;;;;4963091;28;20042;-89
2023/08/19 02:39:12;;;;;;;0.60;0.60;;;21.20;99.90;;;;;;4977342;28;20671;-89
2023/08/19 02:41:41;;;;;;;0.60;0.60;;;21.00;99.90;;;;;;4963779;28;20050;-89
2023/08/19 02:44:07;;;;;;;0.50;0.50;;;20.70;99.90;;;;;;4960314;28;20511;-87
2023/08/19 02:46:32;;;;;;;0.88;0.88;;;20.80;99.90;;;;;;4960523;28;20050;-86
2023/08/19 02:48:58;;;;;;;0.60;0.60;;;21.20;99.90;;;;;;4974709;28;20049;-85
2023/08/19 02:51:24;;;;;;;0.60;0.60;;;20.70;99.90;;;;;;4959073;28;20046;-87
2023/08/19 02:53:49;;;;;;;0.60;0.60;;;21.30;99.90;;;;;;4964527;28;20050;-86
2023/08/19 02:56:15;;;;;;;0.60;0.60;;;21.30;99.90;;;;;;4958711;28;20057;-87
2023/08/19 02:58:40;;;;;;;0.60;0.60;;;21.20;99.90;;;;;;4971586;28;20042;-87
2023/08/19 03:01:06;;;;;;;0.57;0.57;;;20.80;99.90;;;;;;4974082;28;20527;-87
2023/08/19 03:03:33;;;;;;;0.60;0.60;;;21.00;99.90;;;;;;4973735;28;20170;-88
2023/08/19 03:06:00;;;;;;;0.60;0.60;;;21.20;99.90;;;;;;4968467;28;20061;-88
2023/08/19 03:08:25;;;;;;;0.63;0.63;;;20.90;99.90;;;;;;4964309;28;20411;-87
2023/08/19 03:10:51;;;;;;;0.60;0.60;;;21.10;99.90;;;;;;4960561;28;20057;-87
2023/08/19 03:13:17;;;;;;;0.68;0.68;;;21.00;99.90;;;;;;4976158;28;20053;-88
2023/08/19 03:15:42;;;;;;;0.65;0.65;;;21.10;99.90;;;;;;5001638;28;20480;-87
2023/08/19 03:18:09;;;;;;;0.63;0.63;;;21.30;99.90;;;;;;4978709;28;20129;-87
2023/08/19 03:20:35;;;;;;;0.68;0.68;;;21.10;99.90;;;;;;4957699;28;20066;-88
2023/08/19 03:23:01;;;;;;;0.70;0.70;;;21.00;99.90;;;;;;4978571;28;20047;-89
2023/08/19 03:25:27;;;;;;;0.70;0.70;;;21.10;99.90;;;;;;4982565;28;20041;-88
2023/08/19 03:27:53;;;;;;;0.68;0.68;;;20.90;99.90;;;;;;4982217;28;20050;-86
2023/08/19 03:30:19;;;;;;;0.70;0.70;;;21.00;99.90;;;;;;4968878;28;20051;-88
2023/08/19 03:32:44;;;;;;;0.70;0.70;;;21.10;99.90;;;;;;4972559;28;20428;-87
2023/08/19 03:35:10;;;;;;;0.70;0.70;;;21.10;99.90;;;;;;4975710;28;20397;-90
2023/08/19 03:37:36;;;;;;;0.75;0.75;;;20.70;99.90;;;;;;4961667;28;20038;-88
2023/08/19 03:40:02;;;;;;;0.70;0.70;;;20.70;99.90;;;;;;4975766;28;20054;-86
2023/08/19 03:42:28;;;;;;;0.65;0.65;;;20.70;99.90;;;;;;4952959;28;20045;-88
2023/08/19 03:44:53;;;;;;;0.70;0.70;;;20.90;99.90;;;;;;4962645;28;20419;-88
2023/08/19 03:47:19;;;;;;;0.63;0.63;;;20.60;99.90;;;;;;4961811;28;20046;-86
2023/08/19 03:49:45;;;;;;;0.63;0.63;;;21.00;99.90;;;;;;4959363;28;20136;-88
2023/08/19 03:52:10;;;;;;;0.60;0.60;;;20.60;99.90;;;;;;4960665;28;20038;-87
2023/08/19 03:54:36;;;;;;;0.63;0.63;;;20.80;99.90;;;;;;4974453;28;20569;-86
2023/08/19 03:57:02;;;;;;;0.60;0.60;;;20.50;99.90;;;;;;4975001;28;20472;-86
2023/08/19 03:59:28;;;;;;;0.60;0.60;;;20.50;99.90;;;;;;4968499;28;20053;-87
2023/08/19 04:01:53;;;;;;;0.65;0.65;;;20.60;99.90;;;;;;4976376;28;20050;-86
2023/08/19 04:04:19;;;;;;;0.70;0.70;;;20.90;99.90;;;;;;4976607;28;20082;-88
2023/08/19 04:06:45;;;;;;;0.70;0.70;;;20.90;99.90;;;;;;4981068;28;20042;-88
2023/08/19 04:09:10;;;;;;;0.70;0.70;;;20.90;99.90;;;;;;4973912;28;20716;-87
2023/08/19 04:11:39;;;;;;;0.70;0.70;;;20.80;99.90;;;;;;4978216;28;20070;-88
2023/08/19 04:14:08;;;;;;;0.70;0.70;;;20.90;99.90;;;;;;4957236;28;20046;-85
2023/08/19 04:16:36;;;;;;;0.70;0.70;;;20.70;99.90;;;;;;4974347;28;20137;-88
2023/08/19 04:19:02;;;;;;;0.73;0.73;;;20.70;99.90;;;;;;4980194;28;20050;-87
2023/08/19 04:21:27;;;;;;;0.73;0.73;;;20.90;99.90;;;;;;4981045;28;20488;-87
2023/08/19 04:23:53;;;;;;;0.73;0.73;;;20.90;99.90;;;;;;4974244;28;20084;-86
2023/08/19 04:26:19;;;;;;;0.77;0.77;;;20.70;99.90;;;;;;4976663;28;20054;-87
2023/08/19 04:28:45;;;;;;;0.80;0.80;;;20.80;99.90;;;;;;4977727;28;20055;-87
2023/08/19 04:31:11;;;;;;;0.82;0.82;;;20.50;99.90;;;;;;4974174;28;20113;-87
2023/08/19 04:33:38;;;;;;;0.90;0.90;;;20.80;99.90;;;;;;4960623;28;20077;-88
2023/08/19 04:36:04;;;;;;;0.90;0.90;;;20.50;99.90;;;;;;4965967;28;20504;-87
2023/08/19 04:38:30;;;;;;;0.80;0.80;;;20.90;99.90;;;;;;4952962;28;20043;-86
2023/08/19 04:40:58;;;;;;;0.90;0.90;;;20.70;99.90;;;;;;4978660;28;20061;-86
2023/08/19 04:43:24;;;;;;;0.90;0.90;;;20.70;99.90;;;;;;4973701;28;20492;-86
2023/08/19 04:45:50;;;;;;;0.90;0.90;;;21.00;99.90;;;;;;4962152;28;20053;-85
2023/08/19 04:48:15;;;;;;;0.90;0.90;;;20.90;99.90;;;;;;4971742;28;20054;-87
2023/08/19 04:50:41;;;;;;;0.93;0.93;;;20.70;99.90;;;;;;4974760;28;20637;-86
2023/08/19 04:53:07;;;;;;;0.90;0.90;;;20.90;99.90;;;;;;4972855;28;20055;-86
2023/08/19 04:55:32;;;;;;;0.82;0.82;;;20.90;99.90;;;;;;4959158;28;20050;-87
2023/08/19 04:57:58;;;;;;;0.90;0.90;;;21.00;99.90;;;;;;4973764;28;20385;-87
2023/08/19 05:00:24;;;;;;;0.90;0.90;;;21.20;99.90;;;;;;4958509;28;20078;-88
2023/08/19 05:02:49;;;;;;;0.88;0.88;;;21.20;99.90;;;;;;4973568;28;20065;-86
2023/08/19 05:05:15;;;;;;;0.82;0.82;;;21.30;99.90;;;;;;4975960;28;20157;-90
2023/08/19 05:07:41;;;;;;;0.90;0.90;;;21.50;99.90;;;;;;4960684;28;20043;-89
2023/08/19 05:10:08;;;;;;;0.90;0.90;;;21.70;99.90;;;;;;4978322;28;20611;-87
2023/08/19 05:12:34;;;;;;;0.82;0.82;;;21.80;99.90;;;;;;4977464;28;20468;-86
2023/08/19 05:15:00;;;;;;;0.77;0.77;;;22.20;99.90;;;;;;4977928;28;20121;-87
2023/08/19 05:17:26;;;;;;;0.70;0.70;;;22.60;99.90;;;;;;4978170;28;20061;-88
2023/08/19 05:19:51;;;;;;;0.70;0.70;;;22.40;99.90;;;;;;4963117;28;20046;-86
2023/08/19 05:22:17;;;;;;;0.60;0.60;;;22.40;99.90;;;;;;4977075;28;20428;-86
2023/08/19 05:24:43;;;;;;;0.60;0.60;;;22.20;99.90;;;;;;4976583;28;20054;-87
2023/08/19 05:27:09;;;;;;;0.50;0.50;;;22.00;99.90;;;;;;4966153;28;20392;-89
2023/08/19 05:29:35;;;;;;;0.60;0.60;;;21.80;99.90;;;;;;4982940;28;20073;-88
2023/08/19 05:32:01;;;;;;;0.60;0.60;;;21.90;99.90;;;;;;4964430;28;20074;-88
2023/08/19 05:34:27;;;;;;;0.60;0.60;;;21.70;99.90;;;;;;4973162;28;20069;-87
2023/08/19 05:36:52;;;;;;;0.60;0.60;;;21.90;99.90;;;;;;4951695;28;20092;-87
2023/08/19 05:39:18;;;;;;;0.60;0.60;;;21.80;99.90;;;;;;4974530;28;20459;-88
2023/08/19 05:41:44;;;;;;;0.60;0.60;;;21.70;99.90;;;;;;4957968;28;20070;-87
2023/08/19 05:44:09;;;;;;;0.70;0.70;;;21.60;99.90;;;;;;4977005;28;20093;-86
2023/08/19 05:46:35;;;;;;;0.70;0.70;;;21.70;99.90;;;;;;4967271;28;20046;-87
2023/08/19 05:49:01;;;;;;;0.80;0.80;;;21.70;99.90;;;;;;4956967;28;20058;-87
2023/08/19 05:51:27;;;;;;;0.80;0.80;;;21.40;99.90;;;;;;4954324;28;20094;-87
2023/08/19 05:54:00;;;;;;;0.80;0.80;;;21.50;99.90;;;;;;4978559;28;20050;-87
2023/08/19 05:56:26;;;;;;;1.00;1.00;;;21.50;99.90;;;;;;4973990;28;20133;-86
2023/08/19 05:58:52;;;;;;;0.90;0.90;;;21.40;99.90;;;;;;4957321;28;20129;-88
2023/08/19 06:01:17;;;;;;;0.95;0.95;;;21.60;99.90;;;;;;4957408;28;20508;-89
2023/08/19 06:03:43;;;;;;;1.00;1.00;;;21.60;99.90;;;;;;4975802;28;20045;-87
2023/08/19 06:06:09;;;;;;;0.90;0.90;;;21.50;99.90;;;;;;4972099;28;20219;-86
2023/08/19 06:08:35;;;;;;;0.85;0.85;;;21.60;99.90;;;;;;4976919;28;20046;-87
2023/08/19 06:11:05;;;;;;;0.95;0.95;;;21.60;99.90;;;;;;4972883;28;20508;-85
2023/08/19 06:13:31;;;;;;;0.95;0.95;;;21.70;99.90;;;;;;4970521;28;20063;-85
2023/08/19 06:15:57;;;;;;;1.00;1.00;;;21.80;99.90;;;;;;4962978;28;20039;-88
2023/08/19 06:18:23;;;;;;;1.00;1.00;;;21.70;99.90;;;;;;4976715;28;20047;-87
2023/08/19 06:20:50;;;;;;;0.93;0.93;;;21.80;99.90;;;;;;4956987;28;20074;-86
2023/08/19 06:23:18;;;;;;;0.88;0.88;;;21.80;99.90;;;;;;4972152;28;20046;-86
2023/08/19 06:25:44;;;;;;;0.90;0.90;;;21.90;99.90;;;;;;4974154;28;20085;-85
2023/08/19 06:28:10;;;;;;;0.90;0.90;;;21.80;99.90;;;;;;4960315;28;20133;-86
2023/08/19 06:30:36;;;;;;;0.90;0.90;;;21.80;99.90;;;;;;4957094;28;20153;-87
2023/08/19 06:33:02;;;;;;;0.80;0.80;;;21.90;99.90;;;;;;4958185;28;20050;-86
2023/08/19 06:35:27;;;;;;;0.80;0.80;;;21.80;99.90;;;;;;4974670;28;20050;-86
2023/08/19 06:37:59;;;;;;;0.80;0.80;;;21.90;99.90;;;;;;4957364;28;20038;-89
2023/08/19 06:40:33;;;;;;;0.90;0.90;;;22.10;99.90;;;;;;4964275;28;20126;-87
2023/08/19 06:43:00;;;;;;;0.80;0.80;;;22.10;99.90;;;;;;4964297;28;20070;-91
2023/08/19 06:45:26;;;;;;;0.80;0.80;;;22.10;99.90;;;;;;4975249;28;20052;-86
2023/08/19 06:47:53;;;;;;;0.70;0.70;;;22.20;99.90;;;;;;4976428;28;20130;-88
2023/08/19 06:50:19;;;;;;;0.70;0.70;;;22.20;99.90;;;;;;4972286;28;20050;-87
2023/08/19 06:52:45;;;;;;;0.70;0.70;;;22.20;99.90;;;;;;4961005;28;20576;-86
2023/08/19 06:55:12;;;;;;;0.70;0.70;;;22.20;99.90;;;;;;4973380;28;20137;-86
2023/08/19 06:57:47;;;;;;;0.70;0.70;;;22.20;99.90;;;;;;4975784;28;20069;-88
2023/08/19 07:00:14;;;;;;;0.70;0.70;;;22.40;99.90;;;;;;4978746;28;20051;-86
2023/08/19 07:02:40;;;;;;;0.60;0.60;;;22.20;99.90;;;;;;4974949;28;20428;-87
2023/08/19 07:05:15;;;;;;;0.60;0.60;;;22.20;99.90;;;;;;4979927;28;20046;-87
2023/08/19 07:07:50;;;;;;;0.60;0.60;;;22.40;99.90;;;;;;4974372;28;20121;-88
2023/08/19 07:10:18;;;;;;;0.70;0.70;;;22.40;99.90;;;;;;4979082;28;20444;-87
2023/08/19 07:12:45;;;;;;;0.60;0.60;;;22.50;99.90;;;;;;4959159;28;20122;-88
2023/08/19 07:15:12;;;;;;;0.60;0.60;;;22.40;99.90;;;;;;4960876;28;20042;-86
2023/08/19 07:17:46;;;;;;;0.50;0.50;;;22.50;99.90;;;;;;4968276;28;20047;-85
2023/08/19 07:20:15;;;;;;;;;;;22.50;99.90;;;;;;4980394;28;20416;-86
2023/08/19 07:22:47;;;;;;;0.70;0.70;;;22.40;99.90;;;;;;5000565;28;19929;-87
2023/08/19 07:25:14;;;;;;;0.60;0.60;;;22.50;99.90;;;;;;4961608;28;20506;-86
2023/08/19 07:27:44;;;;;;;0.60;0.60;;;22.50;99.90;;;;;;4976708;28;20389;-90
2023/08/19 07:30:11;;;;;;;0.50;0.50;;;22.50;99.90;;;;;;4953969;28;20050;-88
2023/08/19 07:32:37;;;;;;;0.57;0.57;;;22.60;99.90;;;;;;4959149;28;20050;-90
2023/08/19 07:35:03;;;;;;;0.50;0.50;;;22.50;99.90;;;;;;4958645;28;20055;-87
2023/08/19 07:37:29;;;;;;;0.50;0.50;;;22.50;99.90;;;;;;4973128;28;20042;-87
2023/08/19 07:39:57;;;;;;;0.50;0.50;;;22.60;99.90;;;;;;4979840;28;20120;-88
2023/08/19 07:42:23;;;;;;;0.50;0.50;;;22.50;99.90;;;;;;4963998;28;20108;-89
2023/08/19 07:44:51;;;;;;;0.50;0.50;;;22.60;99.90;;;;;;4975306;28;20121;-85
2023/08/19 07:47:17;;;;;;;0.50;0.50;;;22.70;99.90;;;;;;4960668;28;20050;-88
2023/08/19 07:49:43;;;;;;;0.50;0.50;;;22.70;99.90;;;;;;4976263;28;20046;-88
2023/08/19 07:52:08;;;;;;;0.50;0.50;;;22.80;99.90;;;;;;4961422;28;20035;-90
2023/08/19 07:54:34;;;;;;;0.47;0.47;;;22.90;99.90;;;;;;4959474;28;20053;-87
2023/08/19 07:57:00;;;;;;;0.40;0.40;;;22.90;99.90;;;;;;4976399;28;20202;-88
2023/08/19 07:59:26;;;;;;;0.40;0.40;;;23.10;99.90;;;;;;4964414;28;20047;-87
2023/08/19 08:01:52;;;;;;;0.40;0.40;;;23.20;99.90;;;;;;4976553;28;20086;-86
2023/08/19 08:04:19;;;;;;;0.40;0.40;;;23.20;99.90;;;;;;4974160;28;20078;-90
2023/08/19 08:06:46;;;;;;;0.40;0.40;;;23.40;99.90;;;;;;4949687;28;20053;-90
2023/08/19 08:09:11;;;;;;;0.32;0.32;;;23.40;99.90;;;;;;4969931;28;20417;-88
2023/08/19 08:11:39;;;;;;;0.40;0.40;;;23.50;99.90;;;;;;4972251;28;20060;-88
2023/08/19 08:14:05;;;;;;;0.40;0.40;;;23.70;99.90;;;;;;4958292;28;20101;-87
2023/08/19 08:16:31;;;;;;;0.35;0.35;;;23.70;99.90;;;;;;4972092;28;20038;-87
2023/08/19 08:18:57;;;;;;;0.30;0.30;;;23.70;99.90;;;;;;4967199;28;20043;-89
2023/08/19 08:21:22;;;;;;;0.30;0.30;;;23.60;99.90;;;;;;4975143;28;20089;-88
2023/08/19 08:23:49;;;;;;;0.40;0.40;;;23.70;99.90;;;;;;4966150;28;20070;-86
2023/08/19 08:26:15;;;;;;;0.30;0.30;;;23.80;99.90;;;;;;4962190;28;20045;-85
2023/08/19 08:28:41;;;;;;;0.40;0.40;;;24.00;99.90;;;;;;4975345;28;20046;-87
2023/08/19 08:31:07;;;;;;;0.40;0.40;;;24.00;99.90;;;;;;4975613;28;20130;-86
2023/08/19 08:33:33;;;;;;;0.30;0.30;;;24.10;99.90;;;;;;4972491;28;20046;-88
2023/08/19 08:36:00;;;;;;;0.40;0.40;;;24.20;99.90;;;;;;4972510;28;20431;-86
2023/08/19 08:38:26;;;;;;;0.35;0.35;;;24.30;99.90;;;;;;4959967;28;20044;-88
2023/08/19 08:40:52;;;;;;;0.43;0.43;;;24.30;99.90;;;;;;4974980;28;20042;-89
2023/08/19 08:43:17;;;;;;;0.30;0.30;;;24.40;99.90;;;;;;4975390;28;20057;-87
2023/08/19 08:45:44;;;;;;;0.40;0.40;;;24.60;99.90;;;;;;4959024;28;20050;-87
2023/08/19 08:48:11;;;;;;;0.30;0.30;;;24.70;99.90;;;;;;4974813;28;20055;-90
2023/08/19 08:50:40;;;;;;;0.40;0.40;;;24.80;99.90;;;;;;4955576;28;20056;-87
2023/08/19 08:53:06;;;;;;;0.38;0.38;;;24.90;99.90;;;;;;4973782;28;20058;-87
2023/08/19 08:55:33;;;;;;;0.30;0.30;;;24.90;99.90;;;;;;4954998;28;20049;-86
2023/08/19 08:57:59;;;;;;;0.30;0.30;;;25.00;99.90;;;;;;4973779;28;20051;-86
2023/08/19 09:00:25;;;;;;;0.40;0.40;;;25.10;99.90;;;;;;4970893;28;20053;-88
2023/08/19 09:02:53;;;;;;;0.30;0.30;;;25.30;99.90;;;;;;4945113;28;20483;-84
2023/08/19 09:05:21;;;;;;;0.30;0.30;;;25.40;99.90;;;;;;4970730;28;20062;-88
2023/08/19 09:07:49;;;;;;;0.30;0.30;;;25.50;99.90;;;;;;4975106;28;20042;-87
2023/08/19 09:10:18;;;;;;;0.30;0.30;;;25.70;99.90;;;;;;4973681;28;20047;-88
2023/08/19 09:12:47;;;;;;;0.30;0.30;;;25.70;99.90;;;;;;4968644;28;20182;-88
2023/08/19 09:15:16;;;;;;;0.30;0.30;;;25.70;99.90;;;;;;4976297;28;20184;-87
2023/08/19 09:17:42;;;;;;;0.30;0.30;;;25.70;99.90;;;;;;4974357;28;20126;-87
2023/08/19 09:20:09;;;;;;;0.30;0.30;;;25.80;99.90;;;;;;4974553;28;20416;-90
2023/08/19 09:22:38;;;;;;;0.30;0.30;;;25.80;99.90;;;;;;4972943;28;20082;-86
2023/08/19 09:25:07;;;;;;;0.30;0.30;;;26.00;99.90;;;;;;4955284;28;20069;-86
2023/08/19 09:27:33;;;;;;;0.40;0.40;;;26.00;99.90;;;;;;4957782;28;20046;-87
2023/08/19 09:29:59;;;;;;;0.30;0.30;;;26.00;99.90;;;;;;4973347;28;20039;-86
2023/08/19 09:32:33;;;;;;;0.30;0.30;;;25.90;99.90;;;;;;4976937;28;20046;-87
2023/08/19 09:35:06;;;;;;;;;;;26.00;99.90;;;;;;4956455;28;20050;-90
2023/08/19 09:37:33;;;;;;;0.30;0.30;;;26.00;99.90;;;;;;4971540;28;19933;-89
2023/08/19 09:39:59;;;;;;;0.38;0.38;;;26.30;99.90;;;;;;4969507;28;20415;-89
2023/08/19 09:42:27;;;;;;;0.30;0.30;;;26.40;99.90;;;;;;4959290;28;20447;-89
2023/08/19 09:44:53;;;;;;;0.30;0.30;;;26.40;99.90;;;;;;4969841;28;20050;-89
2023/08/19 09:47:19;;;;;;;0.30;0.30;;;26.50;99.90;;;;;;4974186;28;20129;-86
2023/08/19 09:49:51;;;;;;;0.30;0.30;;;26.40;99.90;;;;;;4972683;28;20085;-90
2023/08/19 09:52:17;;;;;;;0.30;0.30;;;26.50;99.90;;;;;;4956264;28;20907;-86
2023/08/19 09:54:53;;;;;;;0.30;0.30;;;26.60;99.90;;;;;;4970977;28;20094;-86
2023/08/19 09:57:33;;;;;;;0.30;0.30;;;27.10;99.90;;;;;;4977881;28;20052;-88
2023/08/19 10:00:00;;;;;;;0.30;0.30;;;27.40;99.90;;;;;;4960374;28;20404;-88
2023/08/19 10:02:28;;;;;;;0.30;0.30;;;27.40;99.90;;;;;;4957768;28;20039;-89
2023/08/19 10:04:55;;;;;;;0.30;0.30;;;27.60;99.90;;;;;;4975151;28;20054;-87
2023/08/19 10:08:05;;;;;;;0.30;0.30;;;27.60;99.90;;;;;;4952611;28;20109;-95
2023/08/19 10:10:31;;;;;;;0.30;0.30;;;27.80;99.90;;;;;;4976320;28;20789;-89
2023/08/19 10:12:59;;;;;;;0.30;0.30;;;27.80;99.90;;;;;;4957819;28;20046;-88
2023/08/19 10:15:30;;;;;;;0.30;0.30;;;27.80;99.90;;;;;;4954575;28;20039;-87
2023/08/19 10:18:03;;;;;;;0.30;0.30;;;28.00;99.90;;;;;;4966957;28;20189;-88
2023/08/19 10:20:32;;;;;;;0.30;0.30;;;28.10;99.90;;;;;;4954480;28;20068;-88
2023/08/19 10:23:04;;;;;;;0.30;0.30;;;28.40;99.90;;;;;;4955915;28;20053;-90
2023/08/19 10:25:31;;;;;;;0.30;0.30;;;28.40;99.90;;;;;;4963339;28;20061;-91
2023/08/19 10:28:21;;;;;;;0.30;0.30;;;28.50;99.90;;;;;;4969649;28;20051;-87
2023/08/19 10:31:10;;;;;;;0.30;0.30;;;28.60;99.90;;;;;;4978892;28;20042;-88
2023/08/19 10:33:44;;;;;;;0.30;0.30;;;28.60;99.90;;;;;;5001814;28;20058;-86
2023/08/19 10:36:22;;;;;;;0.30;0.30;;;28.50;99.90;;;;;;4987534;28;20058;-94
2023/08/19 10:38:55;;;;;;;0.30;0.30;;;28.40;99.90;;;;;;4967173;28;20042;-94
2023/08/19 10:41:37;;;;;;;0.30;0.30;;;28.50;99.90;;;;;;4964705;28;20050;-91
2023/08/19 10:44:13;;;;;;;0.30;0.30;;;28.20;99.90;;;;;;4981768;28;20043;-91
2023/08/19 10:46:43;;;;;;;0.30;0.30;;;28.00;99.90;;;;;;4967424;28;20053;-91
2023/08/19 10:49:19;;;;;;;0.30;0.30;;;27.60;99.90;;;;;;4975679;28;20051;-94
2023/08/19 10:51:59;;;;;;;0.30;0.30;;;27.40;99.90;;;;;;4960043;28;20076;-92
2023/08/19 10:54:41;;;;;;;0.30;0.30;;;27.40;99.90;;;;;;4962647;28;20588;-89
2023/08/19 10:57:09;;;;;;;0.30;0.30;;;27.30;99.90;;;;;;4963444;28;20048;-93
2023/08/19 10:59:36;;;;;;;0.40;0.40;;;27.10;99.90;;;;;;4980878;28;20122;-89
2023/08/19 11:02:05;;;;;;;0.30;0.30;;;26.80;99.90;;;;;;4962802;28;20055;-93
2023/08/19 11:04:39;;;;;;;0.30;0.30;;;26.60;99.90;;;;;;4977175;28;20054;-88
2023/08/19 11:07:07;;;;;;;0.30;0.30;;;26.40;99.90;;;;;;4984726;28;20531;-88
2023/08/19 11:09:33;;;;;;;0.30;0.30;;;26.20;99.90;;;;;;4978811;28;20140;-89
2023/08/19 11:11:59;;;;;;;0.30;0.30;;;25.80;99.90;;;;;;4979538;28;20507;-90
2023/08/19 11:14:25;;;;;;;0.30;0.30;;;25.60;99.90;;;;;;4979268;28;20074;-89
2023/08/19 11:16:52;;;;;;;0.30;0.30;;;25.50;99.90;;;;;;4981359;28;20081;-91
2023/08/19 11:19:24;;;;;;;0.40;0.40;;;25.50;99.90;;;;;;4963493;28;20116;-94
2023/08/19 11:21:50;;;;;;;0.30;0.30;;;25.40;99.90;;;;;;4978887;28;20042;-87
2023/08/19 11:24:20;;;;;;;0.30;0.30;;;25.40;99.90;;;;;;4977420;28;20051;-93
2023/08/19 11:26:49;;;;;;;0.30;0.30;;;25.40;99.90;;;;;;4964141;28;20050;-94
2023/08/19 11:29:14;;;;;;;0.30;0.30;;;25.60;99.90;;;;;;4964157;28;20101;-90
2023/08/19 11:31:42;;;;;;;0.30;0.30;;;25.50;99.90;;;;;;4978727;28;20046;-90
2023/08/19 11:34:09;;;;;;;0.30;0.30;;;25.80;99.90;;;;;;4962626;28;20043;-90
2023/08/19 11:36:36;;;;;;;0.30;0.30;;;25.90;99.90;;;;;;4978639;28;20054;-93
2023/08/19 11:39:04;;;;;;;0.30;0.30;;;26.10;99.90;;;;;;4964022;28;20038;-93
2023/08/19 11:41:30;;;;;;;0.30;0.30;;;26.30;99.90;;;;;;4957249;28;20084;-90
2023/08/19 11:43:57;;;;;;;0.30;0.30;;;26.40;99.90;;;;;;4959468;28;20042;-91
2023/08/19 11:46:30;;;;;;;0.30;0.30;;;26.60;99.90;;;;;;4961946;28;20081;-87
2023/08/19 11:48:58;;;;;;;0.30;0.30;;;27.40;99.90;;;;;;4968539;28;20661;-89
2023/08/19 11:51:28;;;;;;;0.30;0.30;;;27.70;99.90;;;;;;4980308;28;20050;-93
2023/08/19 11:53:59;;;;;;;0.30;0.30;;;27.60;99.90;;;;;;4958409;28;20073;-87
2023/08/19 11:56:25;;;;;;;0.30;0.30;;;27.60;99.90;;;;;;4978136;28;20287;-88
2023/08/19 11:58:52;;;;;;;0.35;0.35;;;27.80;99.90;;;;;;4961827;28;20049;-91
2023/08/19 12:01:20;;;;;;;0.30;0.30;;;28.80;99.90;;;;;;4980469;28;20419;-90
2023/08/19 12:03:50;;;;;;;0.30;0.30;;;29.40;99.90;;;;;;4980625;28;20046;-91
2023/08/19 12:06:16;;;;;;;0.30;0.30;;;29.70;99.90;;;;;;4957397;28;20050;-89
2023/08/19 12:08:44;;;;;;;0.30;0.30;;;30.00;99.90;;;;;;4981721;28;20157;-94
2023/08/19 12:11:11;;;;;;;0.30;0.30;;;30.10;99.90;;;;;;4964469;28;20050;-91
2023/08/19 12:13:38;;;;;;;0.30;0.30;;;30.20;99.90;;;;;;4966165;28;20050;-91
2023/08/19 12:16:07;;;;;;;0.22;0.22;;;30.10;99.90;;;;;;4964134;28;20074;-93
2023/08/19 12:18:36;;;;;;;0.30;0.30;;;30.20;99.90;;;;;;4961581;28;20043;-91
2023/08/19 12:21:03;;;;;;;0.30;0.30;;;29.70;99.90;;;;;;4946784;28;20046;-91
2023/08/19 12:23:46;;;;;;;0.30;0.30;;;29.60;99.90;;;;;;4971438;28;20105;-95
2023/08/19 12:26:15;;;;;;;0.35;0.35;;;29.10;99.90;;;;;;4983276;28;20051;-91
2023/08/19 12:28:49;;;;;;;0.38;0.38;;;28.90;99.90;;;;;;4961402;28;20042;-93
2023/08/19 12:31:50;;;;;;;0.35;0.35;;;28.80;99.90;;;;;;4965065;28;20153;-94
2023/08/19 12:34:16;;;;;;;0.30;0.30;;;28.50;99.90;;;;;;4961233;28;20050;-92
2023/08/19 12:36:42;;;;;;;0.30;0.30;;;28.40;99.90;;;;;;4977690;28;20049;-91
2023/08/19 12:39:08;;;;;;;0.40;0.40;;;28.20;99.90;;;;;;4980328;28;20046;-92
2023/08/19 12:41:34;;;;;;;0.35;0.35;;;28.10;99.90;;;;;;5000416;28;20074;-91
2023/08/19 12:44:03;;;;;;;0.50;0.50;;;28.00;99.90;;;;;;4986141;28;20141;-96
2023/08/19 12:46:32;;;;;;;0.57;0.52;;;27.90;99.90;;;;;;4979712;28;20045;-94
2023/08/19 12:48:58;;;;;;;0.30;0.30;;;27.70;99.90;;;;;;4968020;28;20149;-91
2023/08/19 12:51:44;;;;;;;0.30;0.30;;;27.40;99.90;;;;;;4964191;28;20652;-94